sensor_id;sensor_type;location;lat;lon;timestamp;P1;durP1;ratioP1;P2;durP2;ratioP2
44147;SDS011;29810;55.848;37.368;2022-10-14T00:01:07;11.95;;;9.35;;
44147;SDS011;29810;55.848;37.368;2022-10-14T00:04:11;11.05;;;9.10;;
44147;SDS011;29810;55.848;37.368;2022-10-14T00:07:12;11.85;;;9.82;;
44147;SDS011;29810;55.848;37.368;2022-10-14T00:10:14;11.00;;;8.90;;
44147;SDS011;29810;55.848;37.368;2022-10-14T00:13:16;10.35;;;8.27;;
44147;SDS011;29810;55.848;37.368;2022-10-14T00:16:25;9.85;;;8.82;;
44147;SDS011;29810;55.848;37.368;2022-10-14T00:19:29;11.40;;;8.63;;
44147;SDS011;29810;55.848;37.368;2022-10-14T00:22:30;11.15;;;8.95;;
44147;SDS011;29810;55.848;37.368;2022-10-14T00:25:35;12.35;;;8.80;;
44147;SDS011;29810;55.848;37.368;2022-10-14T00:28:38;12.50;;;9.05;;
44147;SDS011;29810;55.848;37.368;2022-10-14T00:31:39;11.52;;;8.40;;
44147;SDS011;29810;55.848;37.368;2022-10-14T00:34:41;10.85;;;8.98;;
44147;SDS011;29810;55.848;37.368;2022-10-14T00:37:42;12.43;;;9.15;;
44147;SDS011;29810;55.848;37.368;2022-10-14T00:40:44;12.82;;;8.77;;
44147;SDS011;29810;55.848;37.368;2022-10-14T00:46:56;10.40;;;8.70;;
44147;SDS011;29810;55.848;37.368;2022-10-14T00:49:58;11.82;;;8.90;;
44147;SDS011;29810;55.848;37.368;2022-10-14T00:53:04;13.10;;;8.70;;
44147;SDS011;29810;55.848;37.368;2022-10-14T00:56:05;10.15;;;8.63;;
44147;SDS011;29810;55.848;37.368;2022-10-14T00:59:09;12.90;;;8.55;;
44147;SDS011;29810;55.848;37.368;2022-10-14T01:02:11;12.30;;;8.82;;
44147;SDS011;29810;55.848;37.368;2022-10-14T01:05:13;11.50;;;8.48;;
44147;SDS011;29810;55.848;37.368;2022-10-14T01:08:21;11.48;;;8.85;;
44147;SDS011;29810;55.848;37.368;2022-10-14T01:14:47;10.35;;;8.40;;
44147;SDS011;29810;55.848;37.368;2022-10-14T01:21:36;11.10;;;8.63;;
44147;SDS011;29810;55.848;37.368;2022-10-14T01:28:28;9.10;;;7.85;;
44147;SDS011;29810;55.848;37.368;2022-10-14T01:31:47;12.68;;;8.88;;
44147;SDS011;29810;55.848;37.368;2022-10-14T01:38:10;10.95;;;8.85;;
44147;SDS011;29810;55.848;37.368;2022-10-14T01:41:14;11.93;;;8.52;;
44147;SDS011;29810;55.848;37.368;2022-10-14T01:44:20;13.18;;;9.15;;
44147;SDS011;29810;55.848;37.368;2022-10-14T01:47:25;14.63;;;9.85;;
44147;SDS011;29810;55.848;37.368;2022-10-14T01:53:35;10.88;;;8.82;;
44147;SDS011;29810;55.848;37.368;2022-10-14T01:56:41;13.75;;;9.05;;
44147;SDS011;29810;55.848;37.368;2022-10-14T01:59:45;12.15;;;9.23;;
44147;SDS011;29810;55.848;37.368;2022-10-14T02:02:48;13.50;;;9.55;;
44147;SDS011;29810;55.848;37.368;2022-10-14T02:05:54;12.43;;;9.73;;
44147;SDS011;29810;55.848;37.368;2022-10-14T02:12:39;12.63;;;8.63;;
44147;SDS011;29810;55.848;37.368;2022-10-14T02:16:11;12.30;;;9.73;;
44147;SDS011;29810;55.848;37.368;2022-10-14T02:23:00;11.75;;;9.05;;
44147;SDS011;29810;55.848;37.368;2022-10-14T02:26:08;12.98;;;8.68;;
44147;SDS011;29810;55.848;37.368;2022-10-14T02:29:11;14.10;;;9.23;;
44147;SDS011;29810;55.848;37.368;2022-10-14T02:32:13;10.68;;;8.77;;
44147;SDS011;29810;55.848;37.368;2022-10-14T02:35:17;10.73;;;8.60;;
44147;SDS011;29810;55.848;37.368;2022-10-14T02:38:21;10.60;;;8.45;;
44147;SDS011;29810;55.848;37.368;2022-10-14T02:41:27;11.30;;;9.57;;
44147;SDS011;29810;55.848;37.368;2022-10-14T02:44:34;13.43;;;8.85;;
44147;SDS011;29810;55.848;37.368;2022-10-14T02:47:35;13.23;;;8.68;;
44147;SDS011;29810;55.848;37.368;2022-10-14T02:50:37;10.35;;;8.77;;
44147;SDS011;29810;55.848;37.368;2022-10-14T02:53:41;10.65;;;8.57;;
44147;SDS011;29810;55.848;37.368;2022-10-14T02:56:43;10.52;;;8.63;;
44147;SDS011;29810;55.848;37.368;2022-10-14T02:59:45;12.23;;;9.40;;
44147;SDS011;29810;55.848;37.368;2022-10-14T03:02:46;12.30;;;8.80;;
44147;SDS011;29810;55.848;37.368;2022-10-14T03:05:49;10.52;;;8.57;;
44147;SDS011;29810;55.848;37.368;2022-10-14T03:08:50;10.95;;;9.02;;
44147;SDS011;29810;55.848;37.368;2022-10-14T03:11:53;10.88;;;9.15;;
44147;SDS011;29810;55.848;37.368;2022-10-14T03:14:54;11.25;;;8.57;;
44147;SDS011;29810;55.848;37.368;2022-10-14T03:17:58;10.98;;;8.52;;
44147;SDS011;29810;55.848;37.368;2022-10-14T03:21:00;10.68;;;8.57;;
44147;SDS011;29810;55.848;37.368;2022-10-14T03:24:03;11.85;;;8.48;;
44147;SDS011;29810;55.848;37.368;2022-10-14T03:27:05;10.85;;;8.52;;
44147;SDS011;29810;55.848;37.368;2022-10-14T03:30:07;10.90;;;8.35;;
44147;SDS011;29810;55.848;37.368;2022-10-14T03:33:11;10.38;;;7.70;;
44147;SDS011;29810;55.848;37.368;2022-10-14T03:36:14;9.52;;;7.97;;
44147;SDS011;29810;55.848;37.368;2022-10-14T03:39:16;10.05;;;8.43;;
44147;SDS011;29810;55.848;37.368;2022-10-14T03:42:18;11.30;;;8.25;;
44147;SDS011;29810;55.848;37.368;2022-10-14T03:45:20;11.05;;;8.90;;
44147;SDS011;29810;55.848;37.368;2022-10-14T03:48:28;11.70;;;9.15;;
44147;SDS011;29810;55.848;37.368;2022-10-14T03:51:30;13.05;;;8.63;;
44147;SDS011;29810;55.848;37.368;2022-10-14T03:54:34;11.85;;;9.25;;
44147;SDS011;29810;55.848;37.368;2022-10-14T03:57:36;11.88;;;9.13;;
44147;SDS011;29810;55.848;37.368;2022-10-14T04:00:39;15.13;;;9.40;;
44147;SDS011;29810;55.848;37.368;2022-10-14T04:03:41;11.57;;;9.35;;
44147;SDS011;29810;55.848;37.368;2022-10-14T04:06:46;14.63;;;10.10;;
44147;SDS011;29810;55.848;37.368;2022-10-14T04:09:50;13.75;;;9.57;;
44147;SDS011;29810;55.848;37.368;2022-10-14T04:12:52;12.18;;;9.20;;
44147;SDS011;29810;55.848;37.368;2022-10-14T04:15:55;13.55;;;10.02;;
44147;SDS011;29810;55.848;37.368;2022-10-14T04:18:57;12.82;;;9.65;;
44147;SDS011;29810;55.848;37.368;2022-10-14T04:21:59;16.60;;;10.57;;
44147;SDS011;29810;55.848;37.368;2022-10-14T04:25:01;17.42;;;10.20;;
44147;SDS011;29810;55.848;37.368;2022-10-14T04:28:03;15.70;;;9.75;;
44147;SDS011;29810;55.848;37.368;2022-10-14T04:31:08;15.13;;;10.30;;
44147;SDS011;29810;55.848;37.368;2022-10-14T04:34:13;14.63;;;10.02;;
44147;SDS011;29810;55.848;37.368;2022-10-14T04:37:14;14.93;;;10.43;;
44147;SDS011;29810;55.848;37.368;2022-10-14T04:40:16;17.90;;;11.12;;
44147;SDS011;29810;55.848;37.368;2022-10-14T04:43:20;15.02;;;10.00;;
44147;SDS011;29810;55.848;37.368;2022-10-14T04:46:23;16.25;;;10.32;;
44147;SDS011;29810;55.848;37.368;2022-10-14T04:49:25;15.00;;;10.23;;
44147;SDS011;29810;55.848;37.368;2022-10-14T04:52:28;17.50;;;10.77;;
44147;SDS011;29810;55.848;37.368;2022-10-14T04:55:30;17.05;;;10.45;;
44147;SDS011;29810;55.848;37.368;2022-10-14T04:58:33;13.15;;;9.93;;
44147;SDS011;29810;55.848;37.368;2022-10-14T05:01:35;16.40;;;10.02;;
44147;SDS011;29810;55.848;37.368;2022-10-14T05:04:38;13.73;;;10.23;;
44147;SDS011;29810;55.848;37.368;2022-10-14T05:07:40;12.70;;;9.80;;
44147;SDS011;29810;55.848;37.368;2022-10-14T05:10:44;14.20;;;10.02;;
44147;SDS011;29810;55.848;37.368;2022-10-14T05:13:48;13.77;;;10.60;;
44147;SDS011;29810;55.848;37.368;2022-10-14T05:16:51;16.80;;;10.10;;
44147;SDS011;29810;55.848;37.368;2022-10-14T05:19:55;14.55;;;10.30;;
44147;SDS011;29810;55.848;37.368;2022-10-14T05:22:57;14.85;;;10.18;;
44147;SDS011;29810;55.848;37.368;2022-10-14T05:25:59;21.42;;;11.27;;
44147;SDS011;29810;55.848;37.368;2022-10-14T05:29:01;15.07;;;10.68;;
44147;SDS011;29810;55.848;37.368;2022-10-14T05:32:02;18.87;;;10.65;;
44147;SDS011;29810;55.848;37.368;2022-10-14T05:35:05;13.65;;;10.27;;
44147;SDS011;29810;55.848;37.368;2022-10-14T05:38:08;14.48;;;10.18;;
44147;SDS011;29810;55.848;37.368;2022-10-14T05:41:10;15.63;;;10.82;;
44147;SDS011;29810;55.848;37.368;2022-10-14T05:44:12;13.60;;;9.90;;
44147;SDS011;29810;55.848;37.368;2022-10-14T05:47:14;14.57;;;9.10;;
44147;SDS011;29810;55.848;37.368;2022-10-14T05:50:17;15.88;;;9.88;;
44147;SDS011;29810;55.848;37.368;2022-10-14T05:53:19;16.12;;;10.13;;
44147;SDS011;29810;55.848;37.368;2022-10-14T05:56:21;15.52;;;9.75;;
44147;SDS011;29810;55.848;37.368;2022-10-14T05:59:23;17.25;;;10.00;;
44147;SDS011;29810;55.848;37.368;2022-10-14T06:02:24;14.85;;;9.60;;
44147;SDS011;29810;55.848;37.368;2022-10-14T06:05:27;17.77;;;9.63;;
44147;SDS011;29810;55.848;37.368;2022-10-14T06:08:28;16.67;;;10.25;;
44147;SDS011;29810;55.848;37.368;2022-10-14T06:11:30;19.10;;;10.48;;
44147;SDS011;29810;55.848;37.368;2022-10-14T06:14:31;21.73;;;10.13;;
44147;SDS011;29810;55.848;37.368;2022-10-14T06:17:34;24.12;;;10.70;;
44147;SDS011;29810;55.848;37.368;2022-10-14T06:20:35;22.95;;;10.30;;
44147;SDS011;29810;55.848;37.368;2022-10-14T06:23:37;24.33;;;10.63;;
44147;SDS011;29810;55.848;37.368;2022-10-14T06:26:39;22.50;;;10.82;;
44147;SDS011;29810;55.848;37.368;2022-10-14T06:29:41;21.87;;;10.23;;
44147;SDS011;29810;55.848;37.368;2022-10-14T06:32:42;21.62;;;12.45;;
44147;SDS011;29810;55.848;37.368;2022-10-14T06:35:44;24.70;;;10.75;;
44147;SDS011;29810;55.848;37.368;2022-10-14T06:38:45;24.15;;;10.52;;
44147;SDS011;29810;55.848;37.368;2022-10-14T06:41:47;33.47;;;11.40;;
44147;SDS011;29810;55.848;37.368;2022-10-14T06:44:52;22.50;;;10.82;;
44147;SDS011;29810;55.848;37.368;2022-10-14T06:47:54;20.65;;;11.48;;
44147;SDS011;29810;55.848;37.368;2022-10-14T06:50:59;20.33;;;11.80;;
44147;SDS011;29810;55.848;37.368;2022-10-14T06:54:02;22.70;;;11.43;;
44147;SDS011;29810;55.848;37.368;2022-10-14T06:57:03;22.70;;;11.50;;
44147;SDS011;29810;55.848;37.368;2022-10-14T07:00:05;25.62;;;12.23;;
44147;SDS011;29810;55.848;37.368;2022-10-14T07:03:09;30.62;;;12.57;;
44147;SDS011;29810;55.848;37.368;2022-10-14T07:06:10;19.65;;;10.63;;
44147;SDS011;29810;55.848;37.368;2022-10-14T07:09:12;23.77;;;12.32;;
44147;SDS011;29810;55.848;37.368;2022-10-14T07:12:16;22.02;;;11.48;;
44147;SDS011;29810;55.848;37.368;2022-10-14T07:15:17;18.30;;;11.75;;
44147;SDS011;29810;55.848;37.368;2022-10-14T07:18:19;21.52;;;12.05;;
44147;SDS011;29810;55.848;37.368;2022-10-14T07:21:21;20.17;;;12.20;;
44147;SDS011;29810;55.848;37.368;2022-10-14T07:24:22;18.30;;;11.85;;
44147;SDS011;29810;55.848;37.368;2022-10-14T07:27:24;24.60;;;11.93;;
44147;SDS011;29810;55.848;37.368;2022-10-14T07:30:26;19.48;;;11.40;;
44147;SDS011;29810;55.848;37.368;2022-10-14T07:33:27;15.20;;;9.85;;
44147;SDS011;29810;55.848;37.368;2022-10-14T07:36:30;17.70;;;10.50;;
44147;SDS011;29810;55.848;37.368;2022-10-14T07:39:32;15.52;;;9.55;;
44147;SDS011;29810;55.848;37.368;2022-10-14T07:42:34;12.80;;;9.75;;
44147;SDS011;29810;55.848;37.368;2022-10-14T07:45:38;16.58;;;9.05;;
44147;SDS011;29810;55.848;37.368;2022-10-14T07:48:41;10.30;;;8.68;;
44147;SDS011;29810;55.848;37.368;2022-10-14T07:51:43;12.37;;;9.65;;
44147;SDS011;29810;55.848;37.368;2022-10-14T07:54:46;15.38;;;9.52;;
44147;SDS011;29810;55.848;37.368;2022-10-14T07:57:47;10.68;;;8.93;;
44147;SDS011;29810;55.848;37.368;2022-10-14T08:00:49;11.55;;;8.40;;
44147;SDS011;29810;55.848;37.368;2022-10-14T08:03:51;10.45;;;7.85;;
44147;SDS011;29810;55.848;37.368;2022-10-14T08:06:53;14.73;;;7.75;;
44147;SDS011;29810;55.848;37.368;2022-10-14T08:09:55;16.48;;;9.05;;
44147;SDS011;29810;55.848;37.368;2022-10-14T08:12:56;15.77;;;9.80;;
44147;SDS011;29810;55.848;37.368;2022-10-14T08:15:58;20.25;;;10.02;;
44147;SDS011;29810;55.848;37.368;2022-10-14T08:19:00;21.73;;;10.70;;
44147;SDS011;29810;55.848;37.368;2022-10-14T08:22:07;22.37;;;10.50;;
44147;SDS011;29810;55.848;37.368;2022-10-14T08:25:09;17.42;;;10.60;;
44147;SDS011;29810;55.848;37.368;2022-10-14T08:28:11;17.40;;;10.55;;
44147;SDS011;29810;55.848;37.368;2022-10-14T08:31:13;23.58;;;10.43;;
44147;SDS011;29810;55.848;37.368;2022-10-14T08:34:15;16.73;;;9.85;;
44147;SDS011;29810;55.848;37.368;2022-10-14T08:37:21;13.38;;;9.23;;
44147;SDS011;29810;55.848;37.368;2022-10-14T08:40:23;21.87;;;9.45;;
44147;SDS011;29810;55.848;37.368;2022-10-14T08:47:02;14.87;;;9.27;;
44147;SDS011;29810;55.848;37.368;2022-10-14T08:50:22;20.58;;;10.95;;
44147;SDS011;29810;55.848;37.368;2022-10-14T08:53:52;17.45;;;10.45;;
44147;SDS011;29810;55.848;37.368;2022-10-14T08:56:58;18.02;;;10.75;;
44147;SDS011;29810;55.848;37.368;2022-10-14T09:00:01;15.55;;;11.30;;
44147;SDS011;29810;55.848;37.368;2022-10-14T09:03:06;19.58;;;11.07;;
44147;SDS011;29810;55.848;37.368;2022-10-14T09:06:34;12.75;;;9.00;;
44147;SDS011;29810;55.848;37.368;2022-10-14T09:09:39;9.60;;;6.82;;
44147;SDS011;29810;55.848;37.368;2022-10-14T09:12:43;9.73;;;6.65;;
44147;SDS011;29810;55.848;37.368;2022-10-14T09:15:47;10.63;;;6.53;;
44147;SDS011;29810;55.848;37.368;2022-10-14T09:18:55;10.48;;;6.37;;
44147;SDS011;29810;55.848;37.368;2022-10-14T09:21:59;11.98;;;6.93;;
44147;SDS011;29810;55.848;37.368;2022-10-14T09:25:02;12.18;;;6.85;;
44147;SDS011;29810;55.848;37.368;2022-10-14T09:28:07;12.18;;;6.87;;
44147;SDS011;29810;55.848;37.368;2022-10-14T09:31:11;11.68;;;6.87;;
44147;SDS011;29810;55.848;37.368;2022-10-14T09:34:22;11.07;;;8.35;;
44147;SDS011;29810;55.848;37.368;2022-10-14T09:37:33;8.83;;;7.93;;
44147;SDS011;29810;55.848;37.368;2022-10-14T09:40:39;10.43;;;7.97;;
44147;SDS011;29810;55.848;37.368;2022-10-14T09:47:25;8.82;;;6.62;;
44147;SDS011;29810;55.848;37.368;2022-10-14T09:50:48;8.27;;;5.62;;
44147;SDS011;29810;55.848;37.368;2022-10-14T09:53:52;7.22;;;6.05;;
44147;SDS011;29810;55.848;37.368;2022-10-14T09:57:06;7.57;;;6.22;;
44147;SDS011;29810;55.848;37.368;2022-10-14T10:00:22;9.45;;;6.78;;
44147;SDS011;29810;55.848;37.368;2022-10-14T10:03:29;7.93;;;6.28;;
44147;SDS011;29810;55.848;37.368;2022-10-14T10:06:34;10.10;;;6.50;;
44147;SDS011;29810;55.848;37.368;2022-10-14T10:09:53;8.90;;;6.55;;
44147;SDS011;29810;55.848;37.368;2022-10-14T10:12:57;7.75;;;6.47;;
44147;SDS011;29810;55.848;37.368;2022-10-14T10:16:00;9.45;;;6.40;;
44147;SDS011;29810;55.848;37.368;2022-10-14T10:22:29;7.87;;;6.72;;
44147;SDS011;29810;55.848;37.368;2022-10-14T10:25:34;8.65;;;7.05;;
44147;SDS011;29810;55.848;37.368;2022-10-14T10:28:35;7.95;;;6.70;;
44147;SDS011;29810;55.848;37.368;2022-10-14T10:35:35;8.30;;;6.80;;
44147;SDS011;29810;55.848;37.368;2022-10-14T10:38:59;9.52;;;8.48;;
44147;SDS011;29810;55.848;37.368;2022-10-14T10:51:56;12.55;;;9.60;;
44147;SDS011;29810;55.848;37.368;2022-10-14T10:59:04;18.00;;;10.27;;
44147;SDS011;29810;55.848;37.368;2022-10-14T11:08:57;11.00;;;8.98;;
44147;SDS011;29810;55.848;37.368;2022-10-14T11:36:26;13.35;;;10.38;;
44147;SDS011;29810;55.848;37.368;2022-10-14T11:40:05;15.45;;;10.18;;
44147;SDS011;29810;55.848;37.368;2022-10-14T11:43:25;18.83;;;10.80;;
44147;SDS011;29810;55.848;37.368;2022-10-14T11:46:28;12.90;;;9.90;;
44147;SDS011;29810;55.848;37.368;2022-10-14T11:49:59;12.20;;;9.30;;
44147;SDS011;29810;55.848;37.368;2022-10-14T11:53:16;17.27;;;9.68;;
44147;SDS011;29810;55.848;37.368;2022-10-14T11:56:27;11.40;;;9.27;;
44147;SDS011;29810;55.848;37.368;2022-10-14T12:03:12;11.23;;;7.87;;
44147;SDS011;29810;55.848;37.368;2022-10-14T12:06:35;10.15;;;8.15;;
44147;SDS011;29810;55.848;37.368;2022-10-14T12:09:47;13.62;;;8.15;;
44147;SDS011;29810;55.848;37.368;2022-10-14T12:12:54;19.08;;;8.35;;
44147;SDS011;29810;55.848;37.368;2022-10-14T12:15:56;17.37;;;7.45;;
44147;SDS011;29810;55.848;37.368;2022-10-14T12:19:01;15.65;;;7.22;;
44147;SDS011;29810;55.848;37.368;2022-10-14T12:25:15;13.38;;;6.80;;
44147;SDS011;29810;55.848;37.368;2022-10-14T12:28:20;12.23;;;7.07;;
44147;SDS011;29810;55.848;37.368;2022-10-14T12:34:38;11.25;;;7.22;;
44147;SDS011;29810;55.848;37.368;2022-10-14T12:37:47;10.65;;;6.80;;
44147;SDS011;29810;55.848;37.368;2022-10-14T12:40:50;9.32;;;6.47;;
44147;SDS011;29810;55.848;37.368;2022-10-14T12:43:59;11.12;;;6.25;;
44147;SDS011;29810;55.848;37.368;2022-10-14T12:47:02;10.40;;;7.53;;
44147;SDS011;29810;55.848;37.368;2022-10-14T12:56:32;8.82;;;5.90;;
44147;SDS011;29810;55.848;37.368;2022-10-14T12:59:36;11.35;;;6.00;;
44147;SDS011;29810;55.848;37.368;2022-10-14T13:02:42;11.30;;;6.20;;
44147;SDS011;29810;55.848;37.368;2022-10-14T13:05:46;13.38;;;6.80;;
44147;SDS011;29810;55.848;37.368;2022-10-14T13:15:31;9.55;;;6.30;;
44147;SDS011;29810;55.848;37.368;2022-10-14T13:24:41;17.00;;;6.80;;
44147;SDS011;29810;55.848;37.368;2022-10-14T13:27:46;14.25;;;6.43;;
44147;SDS011;29810;55.848;37.368;2022-10-14T13:30:57;14.43;;;7.10;;
44147;SDS011;29810;55.848;37.368;2022-10-14T13:40:37;9.88;;;6.90;;
44147;SDS011;29810;55.848;37.368;2022-10-14T13:43:43;19.42;;;8.35;;
44147;SDS011;29810;55.848;37.368;2022-10-14T13:46:45;15.63;;;8.13;;
44147;SDS011;29810;55.848;37.368;2022-10-14T13:49:48;18.30;;;9.40;;
44147;SDS011;29810;55.848;37.368;2022-10-14T13:52:57;14.85;;;8.65;;
44147;SDS011;29810;55.848;37.368;2022-10-14T13:56:03;23.00;;;9.95;;
44147;SDS011;29810;55.848;37.368;2022-10-14T13:59:20;17.20;;;10.02;;
44147;SDS011;29810;55.848;37.368;2022-10-14T14:02:24;17.70;;;9.27;;
44147;SDS011;29810;55.848;37.368;2022-10-14T14:05:31;20.53;;;8.93;;
44147;SDS011;29810;55.848;37.368;2022-10-14T14:08:37;17.33;;;9.57;;
44147;SDS011;29810;55.848;37.368;2022-10-14T14:11:47;16.20;;;9.13;;
44147;SDS011;29810;55.848;37.368;2022-10-14T14:14:51;16.27;;;8.15;;
44147;SDS011;29810;55.848;37.368;2022-10-14T14:17:53;15.45;;;8.82;;
44147;SDS011;29810;55.848;37.368;2022-10-14T14:20:55;12.32;;;7.70;;
44147;SDS011;29810;55.848;37.368;2022-10-14T14:23:59;15.15;;;7.70;;
44147;SDS011;29810;55.848;37.368;2022-10-14T14:27:01;11.73;;;7.45;;
44147;SDS011;29810;55.848;37.368;2022-10-14T14:30:03;14.73;;;8.30;;
44147;SDS011;29810;55.848;37.368;2022-10-14T14:33:23;13.80;;;8.00;;
44147;SDS011;29810;55.848;37.368;2022-10-14T14:36:31;12.40;;;8.35;;
44147;SDS011;29810;55.848;37.368;2022-10-14T14:39:34;15.02;;;8.68;;
44147;SDS011;29810;55.848;37.368;2022-10-14T14:42:37;10.02;;;7.90;;
44147;SDS011;29810;55.848;37.368;2022-10-14T14:45:41;11.85;;;7.90;;
44147;SDS011;29810;55.848;37.368;2022-10-14T14:48:46;12.35;;;7.82;;
44147;SDS011;29810;55.848;37.368;2022-10-14T14:51:52;15.70;;;7.75;;
44147;SDS011;29810;55.848;37.368;2022-10-14T14:54:54;13.32;;;8.07;;
44147;SDS011;29810;55.848;37.368;2022-10-14T14:57:56;12.77;;;7.62;;
44147;SDS011;29810;55.848;37.368;2022-10-14T15:01:01;13.00;;;7.87;;
44147;SDS011;29810;55.848;37.368;2022-10-14T15:04:05;14.35;;;8.02;;
44147;SDS011;29810;55.848;37.368;2022-10-14T15:07:16;14.73;;;8.23;;
44147;SDS011;29810;55.848;37.368;2022-10-14T15:10:20;14.35;;;8.30;;
44147;SDS011;29810;55.848;37.368;2022-10-14T15:13:29;14.63;;;8.27;;
44147;SDS011;29810;55.848;37.368;2022-10-14T15:16:32;17.50;;;8.25;;
44147;SDS011;29810;55.848;37.368;2022-10-14T15:19:36;12.02;;;8.30;;
44147;SDS011;29810;55.848;37.368;2022-10-14T15:22:38;12.00;;;8.10;;
44147;SDS011;29810;55.848;37.368;2022-10-14T15:25:55;13.00;;;8.95;;
44147;SDS011;29810;55.848;37.368;2022-10-14T15:29:02;14.65;;;9.15;;
44147;SDS011;29810;55.848;37.368;2022-10-14T15:32:14;15.40;;;8.82;;
44147;SDS011;29810;55.848;37.368;2022-10-14T15:35:26;18.27;;;9.93;;
44147;SDS011;29810;55.848;37.368;2022-10-14T15:38:29;16.23;;;10.23;;
44147;SDS011;29810;55.848;37.368;2022-10-14T15:41:30;16.27;;;10.73;;
44147;SDS011;29810;55.848;37.368;2022-10-14T15:44:32;16.33;;;10.68;;
44147;SDS011;29810;55.848;37.368;2022-10-14T15:47:34;27.85;;;16.62;;
44147;SDS011;29810;55.848;37.368;2022-10-14T15:50:36;20.42;;;11.80;;
44147;SDS011;29810;55.848;37.368;2022-10-14T15:53:39;20.90;;;11.43;;
44147;SDS011;29810;55.848;37.368;2022-10-14T15:56:40;18.52;;;11.38;;
44147;SDS011;29810;55.848;37.368;2022-10-14T15:59:42;15.32;;;10.73;;
44147;SDS011;29810;55.848;37.368;2022-10-14T16:02:45;17.40;;;10.60;;
44147;SDS011;29810;55.848;37.368;2022-10-14T16:05:49;17.80;;;10.88;;
44147;SDS011;29810;55.848;37.368;2022-10-14T16:08:50;15.77;;;10.00;;
44147;SDS011;29810;55.848;37.368;2022-10-14T16:11:53;14.43;;;10.20;;
44147;SDS011;29810;55.848;37.368;2022-10-14T16:14:58;15.40;;;10.05;;
44147;SDS011;29810;55.848;37.368;2022-10-14T16:18:04;18.47;;;10.83;;
44147;SDS011;29810;55.848;37.368;2022-10-14T16:21:07;15.15;;;11.30;;
44147;SDS011;29810;55.848;37.368;2022-10-14T16:24:18;16.27;;;10.52;;
44147;SDS011;29810;55.848;37.368;2022-10-14T16:27:22;18.35;;;10.88;;
44147;SDS011;29810;55.848;37.368;2022-10-14T16:30:24;16.83;;;10.50;;
44147;SDS011;29810;55.848;37.368;2022-10-14T16:33:27;51.88;;;21.33;;
44147;SDS011;29810;55.848;37.368;2022-10-14T16:36:29;20.60;;;11.80;;
44147;SDS011;29810;55.848;37.368;2022-10-14T16:39:31;17.48;;;11.10;;
44147;SDS011;29810;55.848;37.368;2022-10-14T16:42:33;16.67;;;11.52;;
44147;SDS011;29810;55.848;37.368;2022-10-14T16:45:35;18.30;;;12.15;;
44147;SDS011;29810;55.848;37.368;2022-10-14T16:48:36;20.50;;;12.20;;
44147;SDS011;29810;55.848;37.368;2022-10-14T16:51:38;21.65;;;12.48;;
44147;SDS011;29810;55.848;37.368;2022-10-14T16:54:40;18.20;;;12.35;;
44147;SDS011;29810;55.848;37.368;2022-10-14T16:57:41;19.92;;;11.75;;
44147;SDS011;29810;55.848;37.368;2022-10-14T17:00:43;23.10;;;12.23;;
44147;SDS011;29810;55.848;37.368;2022-10-14T17:03:45;20.50;;;12.07;;
44147;SDS011;29810;55.848;37.368;2022-10-14T17:06:48;21.58;;;11.73;;
44147;SDS011;29810;55.848;37.368;2022-10-14T17:09:51;17.83;;;11.63;;
44147;SDS011;29810;55.848;37.368;2022-10-14T17:12:53;18.75;;;11.48;;
44147;SDS011;29810;55.848;37.368;2022-10-14T17:15:58;19.02;;;11.02;;
44147;SDS011;29810;55.848;37.368;2022-10-14T17:19:02;21.35;;;10.93;;
44147;SDS011;29810;55.848;37.368;2022-10-14T17:22:03;18.33;;;10.05;;
44147;SDS011;29810;55.848;37.368;2022-10-14T17:25:05;18.40;;;10.85;;
44147;SDS011;29810;55.848;37.368;2022-10-14T17:28:08;18.73;;;10.82;;
44147;SDS011;29810;55.848;37.368;2022-10-14T17:31:17;16.55;;;11.15;;
44147;SDS011;29810;55.848;37.368;2022-10-14T17:34:20;19.60;;;12.00;;
44147;SDS011;29810;55.848;37.368;2022-10-14T17:37:22;17.10;;;11.70;;
44147;SDS011;29810;55.848;37.368;2022-10-14T17:40:23;25.90;;;12.27;;
44147;SDS011;29810;55.848;37.368;2022-10-14T17:43:25;21.85;;;12.65;;
44147;SDS011;29810;55.848;37.368;2022-10-14T17:46:26;18.17;;;11.75;;
44147;SDS011;29810;55.848;37.368;2022-10-14T17:49:29;19.33;;;12.07;;
44147;SDS011;29810;55.848;37.368;2022-10-14T17:52:31;18.20;;;11.52;;
44147;SDS011;29810;55.848;37.368;2022-10-14T17:55:33;19.37;;;12.15;;
44147;SDS011;29810;55.848;37.368;2022-10-14T17:58:36;19.48;;;11.63;;
44147;SDS011;29810;55.848;37.368;2022-10-14T18:01:39;17.02;;;11.85;;
44147;SDS011;29810;55.848;37.368;2022-10-14T18:04:40;19.12;;;11.75;;
44147;SDS011;29810;55.848;37.368;2022-10-14T18:07:42;18.50;;;10.90;;
44147;SDS011;29810;55.848;37.368;2022-10-14T18:10:43;15.63;;;10.25;;
44147;SDS011;29810;55.848;37.368;2022-10-14T18:13:52;14.63;;;10.05;;
44147;SDS011;29810;55.848;37.368;2022-10-14T18:17:02;12.43;;;9.30;;
44147;SDS011;29810;55.848;37.368;2022-10-14T18:20:05;16.95;;;9.38;;
44147;SDS011;29810;55.848;37.368;2022-10-14T18:23:06;14.50;;;10.40;;
44147;SDS011;29810;55.848;37.368;2022-10-14T18:26:11;12.93;;;9.85;;
44147;SDS011;29810;55.848;37.368;2022-10-14T18:29:14;15.35;;;9.32;;
44147;SDS011;29810;55.848;37.368;2022-10-14T18:32:16;16.37;;;9.20;;
44147;SDS011;29810;55.848;37.368;2022-10-14T18:35:18;17.20;;;9.02;;
44147;SDS011;29810;55.848;37.368;2022-10-14T18:38:19;12.15;;;9.25;;
44147;SDS011;29810;55.848;37.368;2022-10-14T18:41:21;12.93;;;9.10;;
44147;SDS011;29810;55.848;37.368;2022-10-14T18:44:23;13.85;;;9.77;;
44147;SDS011;29810;55.848;37.368;2022-10-14T18:47:26;13.95;;;9.18;;
44147;SDS011;29810;55.848;37.368;2022-10-14T18:50:27;15.40;;;9.05;;
44147;SDS011;29810;55.848;37.368;2022-10-14T18:53:32;12.43;;;8.30;;
44147;SDS011;29810;55.848;37.368;2022-10-14T18:56:35;13.07;;;9.15;;
44147;SDS011;29810;55.848;37.368;2022-10-14T18:59:39;13.75;;;8.68;;
44147;SDS011;29810;55.848;37.368;2022-10-14T19:02:40;13.80;;;8.57;;
44147;SDS011;29810;55.848;37.368;2022-10-14T19:05:42;15.77;;;9.18;;
44147;SDS011;29810;55.848;37.368;2022-10-14T19:08:44;13.10;;;8.40;;
44147;SDS011;29810;55.848;37.368;2022-10-14T19:11:49;12.57;;;8.80;;
44147;SDS011;29810;55.848;37.368;2022-10-14T19:14:51;12.43;;;8.38;;
44147;SDS011;29810;55.848;37.368;2022-10-14T19:17:54;12.20;;;8.40;;
44147;SDS011;29810;55.848;37.368;2022-10-14T19:21:06;14.15;;;8.65;;
44147;SDS011;29810;55.848;37.368;2022-10-14T19:24:10;14.63;;;8.82;;
44147;SDS011;29810;55.848;37.368;2022-10-14T19:27:13;15.63;;;8.65;;
44147;SDS011;29810;55.848;37.368;2022-10-14T19:30:15;16.85;;;8.45;;
44147;SDS011;29810;55.848;37.368;2022-10-14T19:33:16;12.50;;;8.57;;
44147;SDS011;29810;55.848;37.368;2022-10-14T19:36:18;15.23;;;9.32;;
44147;SDS011;29810;55.848;37.368;2022-10-14T19:39:20;13.50;;;8.15;;
44147;SDS011;29810;55.848;37.368;2022-10-14T19:42:22;14.63;;;8.23;;
44147;SDS011;29810;55.848;37.368;2022-10-14T19:45:23;11.10;;;8.10;;
44147;SDS011;29810;55.848;37.368;2022-10-14T19:48:25;12.63;;;8.52;;
44147;SDS011;29810;55.848;37.368;2022-10-14T19:51:27;11.15;;;7.75;;
44147;SDS011;29810;55.848;37.368;2022-10-14T19:54:29;12.25;;;7.65;;
44147;SDS011;29810;55.848;37.368;2022-10-14T19:57:30;10.65;;;7.55;;